sensor_id;sensor_type;location;lat;lon;timestamp;pressure;altitude;pressure_sealevel;temperature;humidity
77011;BME280;65945;53.148;17.956;2023-05-10T00:02:10;101492.16;;;9.35;47.93
77011;BME280;65945;53.148;17.956;2023-05-10T00:04:37;101486.86;;;9.35;47.83
77011;BME280;65945;53.148;17.956;2023-05-10T00:07:04;101489.64;;;9.31;47.90
77011;BME280;65945;53.148;17.956;2023-05-10T00:09:30;101491.84;;;9.29;47.98
77011;BME280;65945;53.148;17.956;2023-05-10T00:11:57;101493.49;;;9.27;47.96
77011;BME280;65945;53.148;17.956;2023-05-10T00:14:24;101490.23;;;9.23;47.99
77011;BME280;65945;53.148;17.956;2023-05-10T00:16:51;101490.08;;;9.22;48.09
77011;BME280;65945;53.148;17.956;2023-05-10T00:19:17;101489.26;;;9.18;48.34
77011;BME280;65945;53.148;17.956;2023-05-10T00:21:44;101489.88;;;9.15;48.76
77011;BME280;65945;53.148;17.956;2023-05-10T00:24:10;101485.02;;;9.05;49.43
77011;BME280;65945;53.148;17.956;2023-05-10T00:26:37;101484.14;;;8.87;49.70
77011;BME280;65945;53.148;17.956;2023-05-10T00:29:04;101476.73;;;8.67;50.41
77011;BME280;65945;53.148;17.956;2023-05-10T00:31:31;101474.42;;;8.47;50.91
77011;BME280;65945;53.148;17.956;2023-05-10T00:33:57;101469.01;;;8.28;51.65
77011;BME280;65945;53.148;17.956;2023-05-10T00:36:24;101470.77;;;8.11;51.80
77011;BME280;65945;53.148;17.956;2023-05-10T00:38:51;101468.07;;;7.97;52.19
77011;BME280;65945;53.148;17.956;2023-05-10T00:41:18;101463.29;;;7.84;52.80
77011;BME280;65945;53.148;17.956;2023-05-10T00:43:44;101465.02;;;7.72;52.79
77011;BME280;65945;53.148;17.956;2023-05-10T00:46:11;101464.71;;;7.60;53.00
77011;BME280;65945;53.148;17.956;2023-05-10T00:48:38;101465.41;;;7.51;53.15
77011;BME280;65945;53.148;17.956;2023-05-10T00:51:05;101460.84;;;7.41;53.47
77011;BME280;65945;53.148;17.956;2023-05-10T00:53:34;101459.28;;;7.32;53.77
77011;BME280;65945;53.148;17.956;2023-05-10T00:56:01;101457.16;;;7.23;54.45
77011;BME280;65945;53.148;17.956;2023-05-10T00:58:29;101450.77;;;7.15;54.34
77011;BME280;65945;53.148;17.956;2023-05-10T01:00:58;101450.52;;;7.07;54.92
77011;BME280;65945;53.148;17.956;2023-05-10T01:03:25;101451.60;;;7.00;54.80
77011;BME280;65945;53.148;17.956;2023-05-10T01:05:52;101456.04;;;6.94;54.02
77011;BME280;65945;53.148;17.956;2023-05-10T01:08:19;101458.85;;;6.88;54.54
77011;BME280;65945;53.148;17.956;2023-05-10T01:10:47;101457.43;;;6.81;54.75
77011;BME280;65945;53.148;17.956;2023-05-10T01:13:30;101453.64;;;6.73;55.43
77011;BME280;65945;53.148;17.956;2023-05-10T01:15:59;101449.62;;;6.65;55.82
77011;BME280;65945;53.148;17.956;2023-05-10T01:18:29;101449.65;;;6.58;55.47
77011;BME280;65945;53.148;17.956;2023-05-10T01:26:46;101442.65;;;6.38;56.35
77011;BME280;65945;53.148;17.956;2023-05-10T01:40:26;101429.42;;;6.02;56.86
77011;BME280;65945;53.148;17.956;2023-05-10T01:43:02;101430.06;;;5.95;57.49
77011;BME280;65945;53.148;17.956;2023-05-10T01:45:34;101429.05;;;5.91;57.41
77011;BME280;65945;53.148;17.956;2023-05-10T01:48:10;101423.23;;;5.87;58.13
77011;BME280;65945;53.148;17.956;2023-05-10T01:50:39;101421.27;;;5.86;58.50
77011;BME280;65945;53.148;17.956;2023-05-10T01:53:09;101424.09;;;5.84;58.56
77011;BME280;65945;53.148;17.956;2023-05-10T01:55:47;101424.63;;;5.85;59.03
77011;BME280;65945;53.148;17.956;2023-05-10T01:58:25;101425.11;;;5.85;58.78
77011;BME280;65945;53.148;17.956;2023-05-10T02:00:53;101419.92;;;5.86;59.05
77011;BME280;65945;53.148;17.956;2023-05-10T02:03:23;101417.67;;;5.87;58.98
77011;BME280;65945;53.148;17.956;2023-05-10T02:05:51;101416.62;;;5.88;59.06
77011;BME280;65945;53.148;17.956;2023-05-10T02:08:22;101413.39;;;5.90;58.82
77011;BME280;65945;53.148;17.956;2023-05-10T02:10:52;101412.57;;;5.92;59.11
77011;BME280;65945;53.148;17.956;2023-05-10T02:13:21;101405.67;;;5.93;58.99
77011;BME280;65945;53.148;17.956;2023-05-10T02:15:49;101405.89;;;5.96;59.35
77011;BME280;65945;53.148;17.956;2023-05-10T02:18:18;101402.58;;;5.98;59.32
77011;BME280;65945;53.148;17.956;2023-05-10T02:20:46;101401.48;;;6.00;59.14
77011;BME280;65945;53.148;17.956;2023-05-10T02:23:14;101397.38;;;6.03;59.52
77011;BME280;65945;53.148;17.956;2023-05-10T02:25:43;101396.36;;;6.06;59.28
77011;BME280;65945;53.148;17.956;2023-05-10T02:28:11;101397.23;;;6.06;59.25
77011;BME280;65945;53.148;17.956;2023-05-10T02:30:39;101396.71;;;6.06;59.54
77011;BME280;65945;53.148;17.956;2023-05-10T02:33:07;101397.63;;;6.08;59.63
77011;BME280;65945;53.148;17.956;2023-05-10T02:35:35;101398.16;;;6.08;59.30
77011;BME280;65945;53.148;17.956;2023-05-10T02:38:02;101397.41;;;6.08;59.61
77011;BME280;65945;53.148;17.956;2023-05-10T02:40:32;101395.92;;;6.09;59.76
77011;BME280;65945;53.148;17.956;2023-05-10T02:43:01;101400.25;;;6.07;59.69
77011;BME280;65945;53.148;17.956;2023-05-10T02:45:30;101397.90;;;6.06;59.68
77011;BME280;65945;53.148;17.956;2023-05-10T02:47:58;101397.19;;;6.04;59.98
77011;BME280;65945;53.148;17.956;2023-05-10T02:50:27;101400.96;;;6.04;60.10
77011;BME280;65945;53.148;17.956;2023-05-10T02:53:01;101402.00;;;6.05;60.16
77011;BME280;65945;53.148;17.956;2023-05-10T02:55:39;101397.48;;;6.05;60.11
77011;BME280;65945;53.148;17.956;2023-05-10T02:58:08;101394.27;;;6.06;59.87
77011;BME280;65945;53.148;17.956;2023-05-10T03:00:34;101396.59;;;6.07;59.85
77011;BME280;65945;53.148;17.956;2023-05-10T03:03:03;101396.63;;;6.08;59.85
77011;BME280;65945;53.148;17.956;2023-05-10T03:05:29;101397.50;;;6.09;59.76
77011;BME280;65945;53.148;17.956;2023-05-10T03:07:58;101400.36;;;6.09;60.13
77011;BME280;65945;53.148;17.956;2023-05-10T03:10:29;101403.19;;;6.11;59.63
77011;BME280;65945;53.148;17.956;2023-05-10T03:13:18;101401.54;;;6.13;59.83
77011;BME280;65945;53.148;17.956;2023-05-10T03:16:03;101399.48;;;6.15;59.67
77011;BME280;65945;53.148;17.956;2023-05-10T03:21:04;101396.66;;;6.24;59.32
77011;BME280;65945;53.148;17.956;2023-05-10T03:23:41;101392.98;;;6.31;59.38
77011;BME280;65945;53.148;17.956;2023-05-10T03:26:08;101393.42;;;6.39;59.39
77011;BME280;65945;53.148;17.956;2023-05-10T03:28:36;101395.36;;;6.45;59.04
77011;BME280;65945;53.148;17.956;2023-05-10T03:31:04;101397.10;;;6.51;58.90
77011;BME280;65945;53.148;17.956;2023-05-10T03:33:32;101397.45;;;6.58;58.98
77011;BME280;65945;53.148;17.956;2023-05-10T03:35:59;101392.44;;;6.64;58.73
77011;BME280;65945;53.148;17.956;2023-05-10T03:38:26;101391.54;;;6.71;58.96
77011;BME280;65945;53.148;17.956;2023-05-10T03:40:54;101392.00;;;6.77;58.85
77011;BME280;65945;53.148;17.956;2023-05-10T03:43:20;101390.94;;;6.84;58.48
77011;BME280;65945;53.148;17.956;2023-05-10T03:45:47;101392.56;;;6.92;58.31
77011;BME280;65945;53.148;17.956;2023-05-10T03:48:13;101396.12;;;7.04;57.99
77011;BME280;65945;53.148;17.956;2023-05-10T03:50:41;101393.36;;;7.13;57.64
77011;BME280;65945;53.148;17.956;2023-05-10T03:53:08;101390.63;;;7.18;57.79
77011;BME280;65945;53.148;17.956;2023-05-10T03:55:34;101392.83;;;7.23;57.55
77011;BME280;65945;53.148;17.956;2023-05-10T03:58:03;101388.42;;;7.28;57.19
77011;BME280;65945;53.148;17.956;2023-05-10T04:00:30;101388.38;;;7.33;57.19
77011;BME280;65945;53.148;17.956;2023-05-10T04:02:57;101388.32;;;7.38;56.82
77011;BME280;65945;53.148;17.956;2023-05-10T04:05:24;101388.80;;;7.44;56.58
77011;BME280;65945;53.148;17.956;2023-05-10T04:07:52;101389.38;;;7.50;56.14
77011;BME280;65945;53.148;17.956;2023-05-10T04:10:19;101387.81;;;7.55;55.93
77011;BME280;65945;53.148;17.956;2023-05-10T04:12:45;101388.92;;;7.61;55.74
77011;BME280;65945;53.148;17.956;2023-05-10T04:15:12;101392.55;;;7.68;55.49
77011;BME280;65945;53.148;17.956;2023-05-10T04:17:39;101393.57;;;7.75;55.39
77011;BME280;65945;53.148;17.956;2023-05-10T04:20:06;101389.02;;;7.80;55.12
77011;BME280;65945;53.148;17.956;2023-05-10T04:22:33;101390.00;;;7.87;54.85
77011;BME280;65945;53.148;17.956;2023-05-10T04:25:00;101388.80;;;7.93;54.70
77011;BME280;65945;53.148;17.956;2023-05-10T04:27:26;101389.77;;;7.99;54.75
77011;BME280;65945;53.148;17.956;2023-05-10T04:29:53;101386.58;;;8.06;54.55
77011;BME280;65945;53.148;17.956;2023-05-10T04:32:20;101389.14;;;8.13;54.33
77011;BME280;65945;53.148;17.956;2023-05-10T04:34:46;101392.34;;;8.19;54.06
77011;BME280;65945;53.148;17.956;2023-05-10T04:37:13;101390.73;;;8.26;54.13
77011;BME280;65945;53.148;17.956;2023-05-10T04:39:40;101386.22;;;8.34;53.87
77011;BME280;65945;53.148;17.956;2023-05-10T04:42:06;101383.21;;;8.41;53.52
77011;BME280;65945;53.148;17.956;2023-05-10T04:44:33;101383.36;;;8.48;53.17
77011;BME280;65945;53.148;17.956;2023-05-10T04:47:00;101380.33;;;8.55;52.76
77011;BME280;65945;53.148;17.956;2023-05-10T04:49:28;101381.75;;;8.64;52.64
77011;BME280;65945;53.148;17.956;2023-05-10T04:51:55;101380.34;;;8.72;52.67
77011;BME280;65945;53.148;17.956;2023-05-10T04:54:21;101384.89;;;8.81;52.36
77011;BME280;65945;53.148;17.956;2023-05-10T04:56:48;101383.27;;;8.90;52.34
77011;BME280;65945;53.148;17.956;2023-05-10T04:59:15;101384.44;;;9.01;52.01
77011;BME280;65945;53.148;17.956;2023-05-10T05:01:41;101384.24;;;9.11;52.16
77011;BME280;65945;53.148;17.956;2023-05-10T05:04:08;101381.80;;;9.20;51.53
77011;BME280;65945;53.148;17.956;2023-05-10T05:06:34;101381.33;;;9.30;51.58
77011;BME280;65945;53.148;17.956;2023-05-10T05:09:01;101373.03;;;9.40;51.19
77011;BME280;65945;53.148;17.956;2023-05-10T05:11:28;101370.61;;;9.51;51.09
77011;BME280;65945;53.148;17.956;2023-05-10T05:13:54;101368.87;;;9.61;51.04
77011;BME280;65945;53.148;17.956;2023-05-10T05:16:21;101366.48;;;9.73;50.72
77011;BME280;65945;53.148;17.956;2023-05-10T05:18:47;101369.04;;;9.84;50.33
77011;BME280;65945;53.148;17.956;2023-05-10T05:21:15;101370.33;;;9.97;50.35
77011;BME280;65945;53.148;17.956;2023-05-10T05:23:42;101371.15;;;10.10;50.13
77011;BME280;65945;53.148;17.956;2023-05-10T05:26:09;101368.90;;;10.21;49.99
77011;BME280;65945;53.148;17.956;2023-05-10T05:28:36;101368.14;;;10.34;49.50
77011;BME280;65945;53.148;17.956;2023-05-10T05:31:07;101368.27;;;10.47;49.75
77011;BME280;65945;53.148;17.956;2023-05-10T05:33:36;101367.54;;;10.62;49.30
77011;BME280;65945;53.148;17.956;2023-05-10T05:36:04;101367.30;;;10.75;49.18
77011;BME280;65945;53.148;17.956;2023-05-10T05:38:31;101370.80;;;10.89;48.83
77011;BME280;65945;53.148;17.956;2023-05-10T05:40:58;101365.96;;;11.03;48.48
77011;BME280;65945;53.148;17.956;2023-05-10T05:43:24;101366.96;;;11.18;48.51
77011;BME280;65945;53.148;17.956;2023-05-10T05:45:54;101369.25;;;11.33;47.73
77011;BME280;65945;53.148;17.956;2023-05-10T05:48:21;101370.05;;;11.47;47.86
77011;BME280;65945;53.148;17.956;2023-05-10T05:50:48;101361.10;;;11.63;47.32
77011;BME280;65945;53.148;17.956;2023-05-10T05:53:14;101363.77;;;11.77;47.20
77011;BME280;65945;53.148;17.956;2023-05-10T05:55:51;101366.50;;;11.93;46.60
77011;BME280;65945;53.148;17.956;2023-05-10T05:58:18;101365.56;;;12.09;46.27
77011;BME280;65945;53.148;17.956;2023-05-10T06:00:45;101362.30;;;12.25;46.24
77011;BME280;65945;53.148;17.956;2023-05-10T06:03:11;101364.77;;;12.40;45.85
77011;BME280;65945;53.148;17.956;2023-05-10T06:05:38;101360.52;;;12.57;44.26
77011;BME280;65945;53.148;17.956;2023-05-10T06:08:05;101358.65;;;12.72;43.89
77011;BME280;65945;53.148;17.956;2023-05-10T06:10:31;101362.73;;;12.85;43.91
77011;BME280;65945;53.148;17.956;2023-05-10T06:12:58;101362.23;;;12.99;43.62
77011;BME280;65945;53.148;17.956;2023-05-10T06:15:24;101371.95;;;13.12;43.55
77011;BME280;65945;53.148;17.956;2023-05-10T06:17:51;101371.39;;;13.26;42.77
77011;BME280;65945;53.148;17.956;2023-05-10T06:20:18;101372.64;;;13.38;42.11
77011;BME280;65945;53.148;17.956;2023-05-10T06:22:44;101373.40;;;13.47;42.06
77011;BME280;65945;53.148;17.956;2023-05-10T06:25:11;101370.47;;;13.58;41.51
77011;BME280;65945;53.148;17.956;2023-05-10T06:27:38;101373.77;;;13.69;41.68
77011;BME280;65945;53.148;17.956;2023-05-10T06:30:05;101368.86;;;13.80;41.01
77011;BME280;65945;53.148;17.956;2023-05-10T06:32:32;101367.97;;;13.89;40.66
77011;BME280;65945;53.148;17.956;2023-05-10T06:34:58;101369.60;;;13.98;41.12
77011;BME280;65945;53.148;17.956;2023-05-10T06:37:25;101365.52;;;14.09;40.13
77011;BME280;65945;53.148;17.956;2023-05-10T06:39:51;101364.52;;;14.18;39.95
77011;BME280;65945;53.148;17.956;2023-05-10T06:42:18;101368.25;;;14.28;40.15
77011;BME280;65945;53.148;17.956;2023-05-10T06:44:46;101365.61;;;14.38;39.95
77011;BME280;65945;53.148;17.956;2023-05-10T06:47:12;101359.13;;;14.46;39.48
77011;BME280;65945;53.148;17.956;2023-05-10T06:49:39;101358.64;;;14.54;38.96
77011;BME280;65945;53.148;17.956;2023-05-10T06:52:06;101359.25;;;14.62;38.66
77011;BME280;65945;53.148;17.956;2023-05-10T06:54:33;101356.98;;;14.69;38.44
77011;BME280;65945;53.148;17.956;2023-05-10T06:56:59;101363.48;;;14.77;38.72
77011;BME280;65945;53.148;17.956;2023-05-10T06:59:26;101366.41;;;14.86;39.07
77011;BME280;65945;53.148;17.956;2023-05-10T07:01:52;101362.34;;;14.97;38.22
77011;BME280;65945;53.148;17.956;2023-05-10T07:04:20;101362.26;;;15.06;37.61
77011;BME280;65945;53.148;17.956;2023-05-10T07:06:46;101361.71;;;15.17;37.56
77011;BME280;65945;53.148;17.956;2023-05-10T07:09:13;101363.17;;;15.27;37.60
77011;BME280;65945;53.148;17.956;2023-05-10T07:11:40;101361.67;;;15.36;37.45
77011;BME280;65945;53.148;17.956;2023-05-10T07:14:06;101362.05;;;15.44;37.03
77011;BME280;65945;53.148;17.956;2023-05-10T07:16:33;101364.48;;;15.53;36.94
77011;BME280;65945;53.148;17.956;2023-05-10T07:18:59;101363.46;;;15.64;36.66
77011;BME280;65945;53.148;17.956;2023-05-10T07:21:26;101361.08;;;15.72;36.82
77011;BME280;65945;53.148;17.956;2023-05-10T07:23:54;101356.35;;;15.82;36.77
77011;BME280;65945;53.148;17.956;2023-05-10T07:26:21;101358.61;;;15.90;36.29
77011;BME280;65945;53.148;17.956;2023-05-10T07:28:48;101353.08;;;15.98;36.58
77011;BME280;65945;53.148;17.956;2023-05-10T07:31:14;101355.95;;;16.09;36.51
77011;BME280;65945;53.148;17.956;2023-05-10T07:33:41;101354.34;;;16.16;35.28
77011;BME280;65945;53.148;17.956;2023-05-10T07:36:08;101359.94;;;16.21;35.38
77011;BME280;65945;53.148;17.956;2023-05-10T07:38:34;101357.14;;;16.26;35.48
77011;BME280;65945;53.148;17.956;2023-05-10T07:41:01;101359.98;;;16.33;35.79
77011;BME280;65945;53.148;17.956;2023-05-10T07:43:27;101359.86;;;16.44;35.85
77011;BME280;65945;53.148;17.956;2023-05-10T07:45:54;101357.11;;;16.54;35.39
77011;BME280;65945;53.148;17.956;2023-05-10T07:48:20;101356.32;;;16.60;34.55
77011;BME280;65945;53.148;17.956;2023-05-10T07:50:47;101357.59;;;16.65;34.50
77011;BME280;65945;53.148;17.956;2023-05-10T07:53:14;101357.33;;;16.71;34.55
77011;BME280;65945;53.148;17.956;2023-05-10T07:55:40;101358.23;;;16.76;34.70
77011;BME280;65945;53.148;17.956;2023-05-10T07:58:07;101362.36;;;16.80;34.09
77011;BME280;65945;53.148;17.956;2023-05-10T08:00:33;101360.37;;;16.84;34.14
77011;BME280;65945;53.148;17.956;2023-05-10T08:03:00;101361.09;;;16.89;33.94
77011;BME280;65945;53.148;17.956;2023-05-10T08:05:27;101360.08;;;16.96;34.08
77011;BME280;65945;53.148;17.956;2023-05-10T08:07:53;101363.27;;;17.02;33.72
77011;BME280;65945;53.148;17.956;2023-05-10T08:10:20;101353.65;;;17.05;33.73
77011;BME280;65945;53.148;17.956;2023-05-10T08:12:46;101356.85;;;17.11;33.31
77011;BME280;65945;53.148;17.956;2023-05-10T08:15:13;101351.06;;;17.13;33.36
77011;BME280;65945;53.148;17.956;2023-05-10T08:17:39;101349.94;;;17.19;33.65
77011;BME280;65945;53.148;17.956;2023-05-10T08:20:06;101350.45;;;17.27;33.48
77011;BME280;65945;53.148;17.956;2023-05-10T08:22:34;101349.45;;;17.38;33.31
77011;BME280;65945;53.148;17.956;2023-05-10T08:25:01;101352.98;;;17.48;32.50
77011;BME280;65945;53.148;17.956;2023-05-10T08:27:27;101350.06;;;17.50;32.56
77011;BME280;65945;53.148;17.956;2023-05-10T08:29:54;101351.86;;;17.53;32.40
77011;BME280;65945;53.148;17.956;2023-05-10T08:32:20;101352.86;;;17.55;33.06
77011;BME280;65945;53.148;17.956;2023-05-10T08:34:47;101353.22;;;17.65;32.73
77011;BME280;65945;53.148;17.956;2023-05-10T08:37:14;101351.15;;;17.72;32.57
77011;BME280;65945;53.148;17.956;2023-05-10T08:39:41;101348.61;;;17.78;31.71
77011;BME280;65945;53.148;17.956;2023-05-10T08:42:08;101352.27;;;17.79;31.49
77011;BME280;65945;53.148;17.956;2023-05-10T08:44:36;101352.17;;;17.78;31.82
77011;BME280;65945;53.148;17.956;2023-05-10T08:47:06;101348.47;;;17.78;31.72
77011;BME280;65945;53.148;17.956;2023-05-10T08:49:33;101359.44;;;17.75;31.68
77011;BME280;65945;53.148;17.956;2023-05-10T08:52:04;101355.79;;;17.71;31.50
77011;BME280;65945;53.148;17.956;2023-05-10T08:54:32;101351.94;;;17.74;32.21
77011;BME280;65945;53.148;17.956;2023-05-10T08:57:00;101355.35;;;17.78;31.59
77011;BME280;65945;53.148;17.956;2023-05-10T08:59:27;101349.64;;;17.80;31.48
77011;BME280;65945;53.148;17.956;2023-05-10T09:01:57;101349.72;;;17.83;31.83
77011;BME280;65945;53.148;17.956;2023-05-10T09:04:24;101345.02;;;17.89;31.45
77011;BME280;65945;53.148;17.956;2023-05-10T09:06:51;101347.90;;;17.94;31.90
77011;BME280;65945;53.148;17.956;2023-05-10T09:09:19;101350.71;;;18.05;31.83
77011;BME280;65945;53.148;17.956;2023-05-10T09:11:47;101345.70;;;18.14;31.75
77011;BME280;65945;53.148;17.956;2023-05-10T09:14:15;101346.41;;;18.22;31.56
77011;BME280;65945;53.148;17.956;2023-05-10T09:16:42;101338.15;;;18.30;31.56
77011;BME280;65945;53.148;17.956;2023-05-10T09:19:09;101340.55;;;18.36;31.20
77011;BME280;65945;53.148;17.956;2023-05-10T09:21:36;101330.36;;;18.42;30.94
77011;BME280;65945;53.148;17.956;2023-05-10T09:24:08;101336.95;;;18.44;30.60
77011;BME280;65945;53.148;17.956;2023-05-10T09:26:35;101339.90;;;18.44;29.99
77011;BME280;65945;53.148;17.956;2023-05-10T09:29:02;101339.33;;;18.40;30.84
77011;BME280;65945;53.148;17.956;2023-05-10T09:34:20;101336.48;;;18.46;30.70
77011;BME280;65945;53.148;17.956;2023-05-10T09:36:54;101341.45;;;18.57;30.90
77011;BME280;65945;53.148;17.956;2023-05-10T09:39:21;101341.29;;;18.65;30.31
77011;BME280;65945;53.148;17.956;2023-05-10T09:41:57;101336.48;;;18.68;30.28
77011;BME280;65945;53.148;17.956;2023-05-10T09:44:25;101337.41;;;18.75;30.45
77011;BME280;65945;53.148;17.956;2023-05-10T09:46:52;101334.45;;;18.84;30.49
77011;BME280;65945;53.148;17.956;2023-05-10T09:49:22;101332.11;;;18.94;29.91
77011;BME280;65945;53.148;17.956;2023-05-10T09:54:29;101337.76;;;19.01;30.45
77011;BME280;65945;53.148;17.956;2023-05-10T09:56:56;101337.14;;;19.05;29.50
77011;BME280;65945;53.148;17.956;2023-05-10T09:59:25;101328.14;;;19.06;30.47
77011;BME280;65945;53.148;17.956;2023-05-10T10:01:58;101320.30;;;19.15;30.40
77011;BME280;65945;53.148;17.956;2023-05-10T10:04:25;101320.51;;;19.26;30.77
77011;BME280;65945;53.148;17.956;2023-05-10T10:07:03;101319.02;;;19.40;30.45
77011;BME280;65945;53.148;17.956;2023-05-10T10:09:31;101333.31;;;19.48;29.53
77011;BME280;65945;53.148;17.956;2023-05-10T10:11:59;101324.66;;;19.46;29.99
77011;BME280;65945;53.148;17.956;2023-05-10T10:14:26;101310.45;;;19.47;30.03
77011;BME280;65945;53.148;17.956;2023-05-10T10:16:53;101311.45;;;19.49;30.12
77011;BME280;65945;53.148;17.956;2023-05-10T10:19:20;101314.85;;;19.51;29.78
77011;BME280;65945;53.148;17.956;2023-05-10T10:21:48;101310.51;;;19.50;29.22
77011;BME280;65945;53.148;17.956;2023-05-10T10:24:15;101306.51;;;19.47;29.46
77011;BME280;65945;53.148;17.956;2023-05-10T10:26:43;101298.53;;;19.45;29.53
77011;BME280;65945;53.148;17.956;2023-05-10T10:29:36;101300.62;;;19.46;28.91
77011;BME280;65945;53.148;17.956;2023-05-10T10:32:17;101296.37;;;19.40;28.92
77011;BME280;65945;53.148;17.956;2023-05-10T10:34:46;101301.85;;;19.43;29.22
77011;BME280;65945;53.148;17.956;2023-05-10T10:37:13;101305.55;;;19.50;29.45
77011;BME280;65945;53.148;17.956;2023-05-10T10:39:40;101299.23;;;19.59;29.47
77011;BME280;65945;53.148;17.956;2023-05-10T10:42:06;101297.16;;;19.67;29.20
77011;BME280;65945;53.148;17.956;2023-05-10T10:44:36;101302.27;;;19.71;29.10
77011;BME280;65945;53.148;17.956;2023-05-10T10:52:30;101289.84;;;19.77;28.50
77011;BME280;65945;53.148;17.956;2023-05-10T10:57:52;101282.64;;;19.55;29.06
77011;BME280;65945;53.148;17.956;2023-05-10T11:03:00;101291.32;;;19.73;29.40
77011;BME280;65945;53.148;17.956;2023-05-10T11:07:57;101286.50;;;19.76;28.84
77011;BME280;65945;53.148;17.956;2023-05-10T11:10:25;101281.55;;;19.73;29.34
77011;BME280;65945;53.148;17.956;2023-05-10T11:12:55;101282.84;;;19.77;28.76
77011;BME280;65945;53.148;17.956;2023-05-10T11:15:35;101281.84;;;19.76;28.72
77011;BME280;65945;53.148;17.956;2023-05-10T11:18:19;101286.02;;;19.78;29.43
77011;BME280;65945;53.148;17.956;2023-05-10T11:20:51;101278.91;;;19.87;29.55
77011;BME280;65945;53.148;17.956;2023-05-10T11:23:18;101274.89;;;19.96;29.42
77011;BME280;65945;53.148;17.956;2023-05-10T11:25:46;101279.45;;;20.00;28.88
77011;BME280;65945;53.148;17.956;2023-05-10T11:28:12;101287.52;;;20.00;28.99
77011;BME280;65945;53.148;17.956;2023-05-10T11:30:40;101285.77;;;20.04;28.83
77011;BME280;65945;53.148;17.956;2023-05-10T11:33:08;101268.90;;;20.08;29.03
77011;BME280;65945;53.148;17.956;2023-05-10T11:35:38;101273.52;;;20.13;29.27
77011;BME280;65945;53.148;17.956;2023-05-10T11:38:07;101277.69;;;20.21;28.70
77011;BME280;65945;53.148;17.956;2023-05-10T11:40:35;101271.81;;;20.16;28.51
77011;BME280;65945;53.148;17.956;2023-05-10T11:43:02;101275.02;;;20.10;28.55
77011;BME280;65945;53.148;17.956;2023-05-10T11:45:32;101267.27;;;20.09;29.17
77011;BME280;65945;53.148;17.956;2023-05-10T11:47:59;101264.36;;;20.16;29.15
77011;BME280;65945;53.148;17.956;2023-05-10T11:50:26;101266.72;;;20.24;29.00
77011;BME280;65945;53.148;17.956;2023-05-10T11:52:54;101263.86;;;20.32;28.74
77011;BME280;65945;53.148;17.956;2023-05-10T11:55:21;101268.26;;;20.35;28.41
77011;BME280;65945;53.148;17.956;2023-05-10T11:57:52;101271.98;;;20.36;28.50
77011;BME280;65945;53.148;17.956;2023-05-10T12:00:18;101280.65;;;20.38;28.47
77011;BME280;65945;53.148;17.956;2023-05-10T12:02:46;101272.43;;;20.37;28.17
77011;BME280;65945;53.148;17.956;2023-05-10T12:05:13;101270.70;;;20.30;28.06
77011;BME280;65945;53.148;17.956;2023-05-10T12:07:40;101265.37;;;20.28;28.06
77011;BME280;65945;53.148;17.956;2023-05-10T12:10:12;101259.30;;;20.17;27.72
77011;BME280;65945;53.148;17.956;2023-05-10T12:12:47;101261.08;;;20.07;28.33
77011;BME280;65945;53.148;17.956;2023-05-10T12:15:18;101263.61;;;20.11;28.61
77011;BME280;65945;53.148;17.956;2023-05-10T12:17:47;101262.04;;;20.14;28.18
77011;BME280;65945;53.148;17.956;2023-05-10T12:20:21;101264.21;;;20.14;28.06
77011;BME280;65945;53.148;17.956;2023-05-10T12:22:50;101259.33;;;20.12;27.70
77011;BME280;65945;53.148;17.956;2023-05-10T12:25:19;101264.79;;;20.08;27.96
77011;BME280;65945;53.148;17.956;2023-05-10T12:27:55;101263.52;;;20.12;28.16
77011;BME280;65945;53.148;17.956;2023-05-10T12:30:30;101267.51;;;20.22;28.65
77011;BME280;65945;53.148;17.956;2023-05-10T12:33:10;101263.23;;;20.31;27.61
77011;BME280;65945;53.148;17.956;2023-05-10T12:35:50;101264.05;;;20.28;27.83
77011;BME280;65945;53.148;17.956;2023-05-10T12:38:25;101261.06;;;20.22;27.27
77011;BME280;65945;53.148;17.956;2023-05-10T12:40:52;101257.36;;;20.21;27.79
77011;BME280;65945;53.148;17.956;2023-05-10T12:43:19;101259.77;;;20.27;27.65
77011;BME280;65945;53.148;17.956;2023-05-10T12:45:46;101259.95;;;20.26;27.22
77011;BME280;65945;53.148;17.956;2023-05-10T12:48:15;101257.44;;;20.19;27.40
77011;BME280;65945;53.148;17.956;2023-05-10T12:50:42;101252.40;;;20.17;27.12
77011;BME280;65945;53.148;17.956;2023-05-10T12:53:09;101253.06;;;20.07;27.14
77011;BME280;65945;53.148;17.956;2023-05-10T12:55:35;101259.30;;;20.08;27.84
77011;BME280;65945;53.148;17.956;2023-05-10T12:58:02;101261.89;;;20.13;27.72
77011;BME280;65945;53.148;17.956;2023-05-10T13:00:29;101257.54;;;20.17;27.51
77011;BME280;65945;53.148;17.956;2023-05-10T13:02:55;101241.22;;;20.17;27.16
77011;BME280;65945;53.148;17.956;2023-05-10T13:05:22;101250.07;;;20.15;26.95
77011;BME280;65945;53.148;17.956;2023-05-10T13:07:49;101258.55;;;20.17;27.27
77011;BME280;65945;53.148;17.956;2023-05-10T13:10:16;101257.02;;;20.22;27.09
77011;BME280;65945;53.148;17.956;2023-05-10T13:12:42;101256.84;;;20.27;27.27
77011;BME280;65945;53.148;17.956;2023-05-10T13:15:09;101247.21;;;20.27;27.06
77011;BME280;65945;53.148;17.956;2023-05-10T13:17:36;101245.39;;;20.30;27.11
77011;BME280;65945;53.148;17.956;2023-05-10T13:20:05;101252.35;;;20.32;27.26
77011;BME280;65945;53.148;17.956;2023-05-10T13:22:32;101245.90;;;20.33;27.27
77011;BME280;65945;53.148;17.956;2023-05-10T13:24:59;101245.91;;;20.34;27.10
77011;BME280;65945;53.148;17.956;2023-05-10T13:27:25;101242.66;;;20.31;27.24